Nearby METAR Reports

 

KSJC - San Jose, California, USA
Distance from station: NE 9mi, 14km
Updated: 02,25/2021 7:53pm
Few Clouds
Few Clouds
 Wind from NNW
Wind: NNW 12 mph , 19 km/h
Temperature: 66°F , 19°C
Dew Point: 19°F , -7°C
Humidity: 17%
Barometer: 30.18 inHg , 1022 hPa
Clouds: Few Clouds
Visibility: 10 miles , 16 km
Cloud details: Few Clouds 10000 ft
Few Clouds 16000 ft
2021/02/26 00:53 KSJC 260053Z 33010KT 10SM FEW100 FEW160 19/M07 A3018 RMK AO2 SLP218 T01891072 $
KNUQ - Moffett Nas/Mtn, California, USA
Distance from station: N 9mi, 14km
Updated: 02,25/2021 7:50pm
Clear
Clear
 Wind from NNW
Wind: NNW 10 mph , 17 km/h
Temperature: 64°F , 18°C
Dew Point: 30°F , -1°C
Humidity: 28%
Barometer: 30.18 inHg , 1022 hPa
Clouds: Clear
Visibility: 10 miles , 16 km
2021/02/26 00:50 KNUQ 260050Z AUTO 34009KT 10SM CLR 18/M01 A3018 RMK AO2
KPAO - Palo Alto, California, USA
Distance from station: NNW 14mi, 23km
Updated: 02,25/2021 7:47pm
Clear
Clear
 Wind from NNW
Wind: NNW 9 mph , 15 km/h
Temperature: 64°F , 18°C
Dew Point: 30°F , -1°C
Humidity: 28%
Barometer: 30.19 inHg , 1022.4 hPa
Clouds: Clear
Visibility: 10 miles , 16 km
2021/02/26 00:47 KPAO 260047Z 33008KT 10SM SKC 18/M01 A3019
 
KRHV - San Jose/Reid, California, USA
Distance from station: ENE 12mi, 19km
Updated: 02,25/2021 7:47pm
Clear
Clear
 Wind from NW
Wind: NW 8 mph , 13 km/h
Temperature: 64°F , 18°C
Dew Point: 23°F , -5°C
Humidity: 21%
Barometer: 30.18 inHg , 1022 hPa
Clouds: Clear
Visibility: 10 miles , 16 km
2021/02/26 00:47 KRHV 260047Z 32007KT 10SM SKC 18/M05 A3018
KOAK - Oakland, California, USA
Distance from station: NNW 31mi, 50km
Updated: 02,25/2021 7:53pm
Few Clouds
Few Clouds
 Wind from W
Wind: W 7 mph , 11 km/h
Temperature: 64°F , 18°C
Dew Point: 39°F , 4°C
Humidity: 40%
Barometer: 30.20 inHg , 1022.7 hPa
Clouds: Few Clouds
Visibility: 10 miles , 16 km
Cloud details: Few Clouds 25000 ft
2021/02/26 00:53 KOAK 260053Z 26006KT 10SM FEW250 18/04 A3020 RMK AO2 SLP226 T01780039
KSQL - San Carlos Airpo, California, USA
Distance from station: NW 21mi, 34km
Updated: 02,25/2021 7:47pm
Partly cloudy
Partly cloudy
 Wind from WNW
Wind: WNW 8 mph , 13 km/h
Temperature: 66°F , 19°C
Dew Point: 18°F , -8°C
Humidity: 15%
Barometer: 30.20 inHg , 1022.7 hPa
Clouds: Partly cloudy
Visibility: 10 miles , 16 km
Cloud details: Partly cloudy 20000 ft
2021/02/26 00:47 KSQL 260047Z 30007KT 10SM SCT200 19/M08 A3020
 
KSFO - San Francisco, California, USA
Distance from station: NW 30mi, 49km
Updated: 02,25/2021 7:56pm
Few Clouds
Few Clouds
 Wind from WNW
Wind: WNW 15 mph , 24 km/h
Temperature: 61°F , 16°C
Dew Point: 30°F , -1°C
Humidity: 31%
Barometer: 30.19 inHg , 1022.4 hPa
Clouds: Few Clouds
Visibility: 10 miles , 16 km
Cloud details: Few Clouds 20000 ft
2021/02/26 00:56 KSFO 260056Z 30013KT 10SM FEW200 16/M01 A3019 RMK AO2 SLP224 T01611011
KE16 - San Martin, California, USA
Distance from station: ESE 27mi, 43km
Updated: 02,25/2021 7:55pm
Clear
Clear
 Wind from NW
Wind: NW 8 mph , 13 km/h, Gust: 17 mph , 28 km/h
Temperature: 64°F , 18°C
Dew Point: 19°F , -7°C
Humidity: 18%
Barometer: 30.17 inHg , 1021.7 hPa
Clouds: Clear
Visibility: 10 miles , 16 km
2021/02/26 00:55 KE16 260055Z AUTO 31007G15KT 10SM CLR 18/M07 A3017 RMK AO2 PWINO PNO
KWVI - Watsonville, California, USA
Distance from station: SSE 27mi, 44km
Updated: 02,25/2021 7:53pm
Clear
Clear
 Wind from SSW
Wind: SSW 3 mph , 6 km/h
Temperature: 63°F , 17°C
Dew Point: 36°F , 2°C
Humidity: 37%
Barometer: 30.17 inHg , 1021.7 hPa
Clouds: Clear
Visibility: 10 miles , 16 km
2021/02/26 00:53 KWVI 260053Z AUTO 21003KT 10SM CLR 17/02 A3017 RMK AO2 SLP216 T01670022
 
KHAF - Half Moon Bay, California, USA
Distance from station: WNW 31mi, 50km
Updated: 02,25/2021 7:55pm
Clear
Clear
 Wind from NNW
Wind: NNW 9 mph , 15 km/h
Temperature: 54°F , 12°C
Dew Point: 39°F , 4°C
Humidity: 58%
Barometer: 30.22 inHg , 1023.4 hPa
Clouds: Clear
Visibility: 7 miles , 11 km
2021/02/26 00:55 KHAF 260055Z AUTO 34008KT 7SM CLR 12/04 A3022 RMK AO2
KHWD - Hayward, California, USA
Distance from station: N 28mi, 44km
Updated: 02,25/2021 7:54pm
Clear
Clear
 Wind from W
Wind: W 6 mph , 9 km/h
Temperature: 61°F , 16°C
Dew Point: 34°F , 1°C
Humidity: 36%
Barometer: 30.19 inHg , 1022.4 hPa
Clouds: Clear
Visibility: 10 miles , 16 km
2021/02/26 00:54 KHWD 260054Z 28005KT 10SM CLR 16/01 A3019 RMK AO2 SLP232 T01610011
KLVK - Livermore, California, USA
Distance from station: NNE 31mi, 51km
Updated: 02,25/2021 7:53pm
Clear
Clear
 Wind from calm
Wind: Calm
Temperature: 66°F , 19°C
Dew Point: 18°F , -8°C
Humidity: 15%
Barometer: 30.17 inHg , 1021.7 hPa
Clouds: Clear
Visibility: 10 miles , 16 km
2021/02/26 00:53 KLVK 260053Z 00000KT 10SM CLR 19/M08 A3017 RMK AO2 SLP214 T01891083